Lowry, MN (56349)

1:30 AM CDT on July 12, 2014 (GMT -0500)
KMGK (Magic 107.1) FM (KMNGLENW1) Elev 1168 ft | 45.65 °N, 95.39 °W | Change Station

Current weather conditions updated 3 seconds ago

Scattered Clouds
Scattered Clouds
74.1 °F
Feels Like 74 °F
N
0.0
Wind Variable Wind from West
Gusts 0.0 mph

Today is forecast to be Much Cooler than yesterday.

Today
High -- | Low -- °F
--% Chance of Precip.
Yesterday
High -- | Low -- °F
Precip. -- in
5:44 AM 9:10 PM
Full, 100% visible
Pressure 30.03 in
Visibility 10.0 miles
Clouds Scattered Clouds 5000 ft
Heat Index 74 °F
Dew Point 68 °F
Humidity 81%
Rainfall 0.00 in
Snow Depth Not available.
UV 0 out of 12
Pollen .60 out of 12
Air Quality Not available.
Flu Activity Sporadic
METAR KGHW 120615Z AUTO 36003KT 10SM SCT050 22/19 A3003 RMK AO2

More Conditions Fewer Conditions

Pressure 30.03 in
Visibility 10.0 miles
Clouds Scattered Clouds 5000 ft
Heat Index 74 °F
Dew Point 68 °F
Humidity 81%
Rainfall 0.00 in
Snow Depth Not available.
UV 0 out of 12
Pollen .60 out of 12
Air Quality Not available.
Flu Activity Sporadic
METAR KGHW 120615Z AUTO 36003KT 10SM SCT050 22/19 A3003 RMK AO2

More Conditions Fewer Conditions

10-Day Weather Forecast

Almanac

Astronomy

Jul. 12, 2014 Rise Set
Actual Time 5:44 AM CDT 9:10 PM CDT
Civil Twilight 5:07 AM CDT 9:47 PM CDT
Nautical Twilight 4:18 AM CDT 10:35 PM CDT
Astronomical Twilight 3:16 AM CDT 11:37 PM CDT
Moon 9:06 PM CDT 6:09 AM CDT
Length of Visible Light 16h 39m
Length of Day
15h 26m
Tomorrow will be 1m 33s shorter.
Full, 100% of the Moon is Illuminated
Today
Full
Jul 12
Full
Jul 18
Last Quarter
Jul 26
New
Aug 3
First Quarter

Today's Extremes

State Highs State Lows

Community

WunderPhotos

Upload Photos

1,732,718 photos uploaded!

Nearby

Snow Depth

Station Depth Elevation
No new snow has been reported.

Earthquake Activity

City Distance Mag. Time & Date
No recent earthquake activity has been reported nearby.
Minimum magnitude displayed is 2.5.

Coastal Water Temperatures

Place Temperature
No Stations Reporting

Nearby Weather Stations

Station Location Temp. Heat Index Dew Point Humidity Wind Precip. Elev Updated Type
KMGK (Magic 107.1) FM, Glenwood, MN 74.1 °F 74 °F 68 °F 81% West  at  0.0 mph 0.00 in / hr 1168 ft 1:30 AM CDT Rapid Fire
Hoffman MN, Hoffman, MN 70.0 °F - 68 °F 94% North  at  0.7 mph 0.00 in / hr 1240 ft 1:28 AM CDT Normal
Gardonville, Brandon, MN 71.7 °F 74 °F 62 °F 72% NNE  at  5.0 mph 0.00 in / hr 1411 ft 1:30 AM CDT Rapid Fire
APRSWXNET Morris MN , Morris, MN 75 °F 76 °F 68 °F 80% North  at  1 mph 0.00 in / hr 1174 ft 12:36 AM CDT MADIS

Show More Stations Show Fewer Stations